Time;durP1;ratioP1;P1;durP2;ratioP2;P2;SDS_P1;SDS_P2;PMS_P1;PMS_P2;Temp;Humidity;BMP_temperature;BMP_pressure;BME280_temperature;BME280_humidity;BME280_pressure;Samples;Min_cycle;Max_cycle;Signal;HPM_P1;HPM_P2
2024/04/09 00:01:58;;;;;;;12.65;4.35;;;;;;;19.44;57.14;100240.16;5348054;26;121068;-83
2024/04/09 00:04:27;;;;;;;7.85;3.90;;;;;;;19.42;56.94;100236.75;5356392;26;107558;-83
2024/04/09 00:06:55;;;;;;;8.27;4.03;;;;;;;19.39;57.02;100221.78;5359339;26;105465;-82
2024/04/09 00:09:22;;;;;;;7.80;3.90;;;;;;;19.37;57.08;100220.22;5356002;26;122152;-84
2024/04/09 00:11:53;;;;;;;9.23;4.18;;;;;;;19.35;57.34;100231.09;5374295;26;122780;-83
2024/04/09 00:14:21;;;;;;;11.85;4.32;;;;;;;19.33;57.08;100238.47;5374617;26;107334;-82
2024/04/09 00:16:48;;;;;;;11.43;3.92;;;;;;;19.33;57.14;100264.47;5351339;26;105679;-83
2024/04/09 00:19:17;;;;;;;10.20;3.72;;;;;;;19.34;57.35;100284.94;5367655;26;121854;-83
2024/04/09 00:21:44;;;;;;;10.18;4.20;;;;;;;19.35;57.34;100326.94;5349679;26;121418;-82
2024/04/09 00:24:12;;;;;;;8.35;4.47;;;;;;;19.34;57.60;100346.72;5362262;26;109135;-83
2024/04/09 00:26:39;;;;;;;8.10;4.25;;;;;;;19.32;57.82;100346.00;5354751;26;107557;-83
2024/04/09 00:29:07;;;;;;;8.43;4.15;;;;;;;19.31;57.90;100320.13;5331986;26;122694;-82
2024/04/09 00:31:34;;;;;;;9.32;4.10;;;;;;;19.28;57.76;100293.56;5367526;26;122025;-82
2024/04/09 00:34:03;;;;;;;11.38;4.45;;;;;;;19.23;57.68;100281.41;5341408;26;107609;-81
2024/04/09 00:36:33;;;;;;;8.20;4.13;;;;;;;19.20;57.65;100265.56;5339997;26;106963;-83
2024/04/09 00:39:01;;;;;;;8.38;4.40;;;;;;;19.15;58.16;100251.72;5340192;26;121006;-82
2024/04/09 00:41:29;;;;;;;7.60;4.20;;;;;;;19.11;58.08;100257.50;5331963;26;121035;-82
2024/04/09 00:43:56;;;;;;;9.88;4.45;;;;;;;19.05;58.07;100238.28;5365305;26;106350;-82
2024/04/09 00:46:24;;;;;;;9.77;4.80;;;;;;;19.03;58.51;100232.19;5334230;26;106508;-82
2024/04/09 00:48:53;;;;;;;9.82;4.25;;;;;;;19.03;58.15;100247.47;5323674;26;121441;-82
2024/04/09 00:51:20;;;;;;;6.88;4.18;;;;;;;19.00;58.24;100253.09;5324276;26;121339;-82
2024/04/09 00:53:49;;;;;;;8.15;4.05;;;;;;;18.98;58.35;100257.75;5327242;26;106517;-84
2024/04/09 00:56:16;;;;;;;9.05;3.50;;;;;;;18.95;58.35;100263.41;5331604;26;107085;-84
2024/04/09 00:58:46;;;;;;;6.82;3.67;;;;;;;18.91;58.42;100248.56;5339091;26;123026;-82
2024/04/09 01:01:16;;;;;;;7.38;3.97;;;;;;;18.92;58.79;100255.63;5358240;26;121484;-83
2024/04/09 01:03:45;;;;;;;8.27;3.67;;;;;;;18.92;58.74;100247.59;5364003;26;107365;-83
2024/04/09 01:06:12;;;;;;;7.03;3.72;;;;;;;18.92;58.71;100248.44;5332277;26;106612;-82
2024/04/09 01:08:41;;;;;;;8.63;3.60;;;;;;;18.92;58.77;100255.63;5331762;26;122002;-83
2024/04/09 01:11:08;;;;;;;7.68;4.30;;;;;;;18.92;58.93;100275.25;5357713;26;121194;-82
2024/04/09 01:13:38;;;;;;;9.70;4.13;;;;;;;18.93;58.73;100294.88;5328911;26;106566;-82
2024/04/09 01:16:05;;;;;;;8.43;4.35;;;;;;;18.92;59.08;100301.25;5364943;26;108593;-83
2024/04/09 01:18:33;;;;;;;6.57;4.05;;;;;;;18.91;59.01;100302.22;5356831;26;121221;-83
2024/04/09 01:21:00;;;;;;;8.18;4.60;;;;;;;18.87;59.00;100301.66;5363836;26;122822;-82
2024/04/09 01:23:28;;;;;;;10.40;4.60;;;;;;;18.84;58.91;100281.31;5368039;26;106865;-82
2024/04/09 01:25:55;;;;;;;8.80;4.25;;;;;;;18.82;59.11;100294.03;5358356;26;106615;-84
2024/04/09 01:28:23;;;;;;;9.55;4.93;;;;;;;18.80;59.09;100306.72;5334290;26;120045;-84
2024/04/09 01:30:55;;;;;;;6.97;3.90;;;;;;;18.78;59.10;100322.06;5356267;26;121510;-82
2024/04/09 01:33:24;;;;;;;8.70;4.10;;;;;;;18.77;59.19;100332.94;5353528;26;106728;-82
2024/04/09 01:35:52;;;;;;;6.20;3.58;;;;;;;18.74;59.20;100334.06;5340513;26;106256;-82
2024/04/09 01:38:20;;;;;;;5.53;3.47;;;;;;;18.73;59.05;100332.34;5336109;26;121964;-82
2024/04/09 01:40:47;;;;;;;6.60;4.20;;;;;;;18.70;59.50;100327.25;5338525;26;121377;-84
2024/04/09 01:43:15;;;;;;;7.75;3.60;;;;;;;18.68;59.18;100329.22;5333738;26;106763;-82
2024/04/09 01:45:42;;;;;;;5.40;3.30;;;;;;;18.66;59.19;100321.31;5357859;26;107138;-83
2024/04/09 01:48:11;;;;;;;7.00;3.45;;;;;;;18.63;59.34;100304.66;5330397;26;123604;-84
2024/04/09 01:50:38;;;;;;;7.00;3.60;;;;;;;18.60;59.39;100297.72;5364552;26;121039;-83
2024/04/09 01:53:06;;;;;;;6.30;3.72;;;;;;;18.58;59.59;100282.75;5332443;26;106728;-85
2024/04/09 01:55:33;;;;;;;9.43;3.65;;;;;;;18.58;59.36;100272.84;5367653;26;106895;-82
2024/04/09 01:58:04;;;;;;;7.50;3.55;;;;;;;18.58;59.42;100258.59;5337930;26;120043;-83
2024/04/09 02:00:31;;;;;;;7.00;3.30;;;;;;;18.57;59.34;100251.53;5322845;26;121805;-82
2024/04/09 02:03:01;;;;;;;7.70;3.72;;;;;;;18.58;59.42;100255.91;5361734;26;107808;-83
2024/04/09 02:05:35;;;;;;;6.22;3.20;;;;;;;18.57;59.40;100240.81;5323096;26;108031;-83
2024/04/09 02:08:03;;;;;;;9.48;3.90;;;;;;;18.57;59.01;100240.81;5337616;26;120223;-83
2024/04/09 02:10:31;;;;;;;7.75;3.90;;;;;;;18.56;59.60;100239.13;5367385;26;121316;-83
2024/04/09 02:12:58;;;;;;;5.38;3.42;;;;;;;18.54;59.58;100246.47;5368478;26;107546;-83
2024/04/09 02:15:25;;;;;;;8.43;3.67;;;;;;;18.49;59.12;100250.38;5363397;26;107441;-84
2024/04/09 02:17:52;;;;;;;6.38;3.85;;;;;;;18.47;59.76;100252.34;5368891;26;122701;-83
2024/04/09 02:20:20;;;;;;;10.07;3.70;;;;;;;18.43;59.48;100261.63;5340427;26;121222;-83
2024/04/09 02:22:47;;;;;;;8.18;3.67;;;;;;;18.41;59.66;100301.16;5340301;26;106911;-85
2024/04/09 02:25:15;;;;;;;7.65;3.65;;;;;;;18.42;59.63;100324.31;5331526;26;106433;-83
2024/04/09 02:27:42;;;;;;;6.15;3.83;;;;;;;18.41;59.52;100333.31;5351943;26;121765;-83
2024/04/09 02:30:10;;;;;;;5.05;3.40;;;;;;;18.40;59.71;100331.63;5306222;26;121748;-85
2024/04/09 02:32:37;;;;;;;8.65;3.72;;;;;;;18.40;59.79;100337.00;5328070;26;105993;-83
2024/04/09 02:35:05;;;;;;;6.07;3.28;;;;;;;18.38;60.09;100338.09;5338331;26;106868;-83
2024/04/09 02:37:32;;;;;;;5.78;3.40;;;;;;;18.36;59.88;100332.84;5355264;26;123491;-83
2024/04/09 02:39:59;;;;;;;8.60;3.47;;;;;;;18.33;59.91;100335.81;5331508;26;120009;-84
2024/04/09 02:42:27;;;;;;;5.82;3.10;;;;;;;18.31;59.88;100345.84;5365910;26;105731;-83
2024/04/09 02:44:54;;;;;;;8.30;3.30;;;;;;;18.31;60.19;100343.16;5367748;26;106955;-84
2024/04/09 02:47:22;;;;;;;5.63;3.30;;;;;;;18.30;60.09;100346.81;5335165;26;120235;-83
2024/04/09 02:49:52;;;;;;;4.50;3.00;;;;;;;18.28;60.08;100346.09;5364508;26;121938;-83
2024/04/09 02:52:19;;;;;;;7.40;3.10;;;;;;;18.26;60.18;100351.56;5340126;26;108643;-83
2024/04/09 02:54:47;;;;;;;6.45;2.60;;;;;;;18.25;60.33;100362.41;5339968;26;108800;-82
2024/04/09 02:57:14;;;;;;;4.65;2.70;;;;;;;18.23;60.31;100373.28;5319176;26;121354;-84
2024/04/09 02:59:41;;;;;;;5.70;2.60;;;;;;;18.24;60.22;100374.13;5337487;26;122193;-84
2024/04/09 03:02:09;;;;;;;7.05;3.10;;;;;;;18.24;60.39;100374.13;5360821;26;107730;-83
2024/04/09 03:04:36;;;;;;;7.53;3.00;;;;;;;18.23;60.26;100372.44;5362600;26;106471;-83
2024/04/09 03:07:04;;;;;;;7.55;3.35;;;;;;;18.25;60.67;100386.53;5340873;26;120580;-82
2024/04/09 03:09:31;;;;;;;8.15;3.10;;;;;;;18.26;60.81;100388.25;5331149;26;122891;-83
2024/04/09 03:11:59;;;;;;;6.18;2.72;;;;;;;18.25;60.38;100398.16;5326150;26;107371;-84
2024/04/09 03:14:29;;;;;;;7.30;2.88;;;;;;;18.24;60.62;100390.22;5343587;26;107047;-85
2024/04/09 03:16:57;;;;;;;7.22;2.80;;;;;;;18.23;60.66;100377.78;5335655;26;120288;-85
2024/04/09 03:19:24;;;;;;;4.60;2.53;;;;;;;18.23;60.68;100362.56;5355094;26;122357;-84
2024/04/09 03:21:51;;;;;;;6.80;2.97;;;;;;;18.24;60.60;100358.06;5360101;26;107178;-83
2024/04/09 03:24:18;;;;;;;6.07;3.17;;;;;;;18.25;60.55;100354.38;5319172;26;107057;-85
2024/04/09 03:26:46;;;;;;;5.70;3.05;;;;;;;18.26;60.68;100361.44;5337118;26;121555;-83
2024/04/09 03:29:13;;;;;;;5.68;3.03;;;;;;;18.24;60.99;100358.06;5329814;26;121632;-83
2024/04/09 03:31:40;;;;;;;6.47;2.80;;;;;;;18.23;60.66;100353.66;5360677;26;105382;-83
2024/04/09 03:34:08;;;;;;;5.45;3.17;;;;;;;18.24;60.92;100347.34;5352426;26;106279;-84
2024/04/09 03:36:35;;;;;;;5.30;3.25;;;;;;;18.24;60.75;100348.19;5340637;26;123335;-83
2024/04/09 03:39:04;;;;;;;5.80;3.92;;;;;;;18.25;60.85;100351.69;5338976;26;121541;-84
2024/04/09 03:41:31;;;;;;;5.97;4.03;;;;;;;18.25;60.63;100365.09;5329660;26;108700;-83
2024/04/09 03:44:00;;;;;;;7.55;4.70;;;;;;;18.25;60.73;100381.19;5359213;26;107974;-84
2024/04/09 03:46:27;;;;;;;8.60;4.70;;;;;;;18.25;60.56;100391.91;5300136;26;121179;-83
2024/04/09 03:48:57;;;;;;;9.07;4.53;;;;;;;18.24;60.97;100390.22;5334494;26;122703;-84
2024/04/09 03:51:24;;;;;;;7.93;4.10;;;;;;;18.22;60.70;100381.47;5355019;26;107842;-83
2024/04/09 03:53:52;;;;;;;7.50;4.15;;;;;;;18.23;60.74;100388.50;5362579;26;107680;-84
2024/04/09 03:56:19;;;;;;;6.95;4.20;;;;;;;18.22;60.76;100386.81;5338583;26;121119;-83
2024/04/09 03:58:49;;;;;;;5.00;3.92;;;;;;;18.22;60.58;100387.66;5327889;26;121085;-83
2024/04/09 04:01:17;;;;;;;7.72;4.30;;;;;;;18.22;60.54;100397.53;5335184;26;108053;-84
2024/04/09 04:03:47;;;;;;;6.38;3.58;;;;;;;18.21;60.75;100406.56;5340544;26;107120;-83
2024/04/09 04:06:14;;;;;;;6.97;4.03;;;;;;;18.19;60.78;100419.25;5365131;26;122131;-83
2024/04/09 04:08:44;;;;;;;8.40;4.30;;;;;;;18.16;60.46;100432.88;5332833;26;121029;-83
2024/04/09 04:11:14;;;;;;;5.93;3.95;;;;;;;18.13;60.54;100446.56;5343237;26;106911;-83
2024/04/09 04:13:41;;;;;;;8.55;4.40;;;;;;;18.08;60.53;100458.53;5339499;26;106345;-86
2024/04/09 04:16:12;;;;;;;7.95;4.57;;;;;;;18.05;60.43;100466.81;5341436;26;121416;-84
2024/04/09 04:18:45;;;;;;;7.68;4.68;;;;;;;18.02;60.50;100467.03;5356432;26;122236;-84
2024/04/09 04:21:16;;;;;;;8.38;4.57;;;;;;;17.99;60.73;100478.03;5334991;26;107457;-82
2024/04/09 04:23:46;;;;;;;5.50;3.97;;;;;;;17.95;60.67;100503.38;5365905;26;107720;-83
2024/04/09 04:26:16;;;;;;;9.10;4.43;;;;;;;17.92;60.75;100514.34;5358844;26;122795;-85
2024/04/09 04:28:45;;;;;;;4.95;3.90;;;;;;;17.88;60.74;100507.53;5362969;26;124501;-85
2024/04/09 04:31:14;;;;;;;7.90;3.85;;;;;;;17.82;60.57;100508.84;5334567;26;107795;-85
2024/04/09 04:33:43;;;;;;;8.80;3.55;;;;;;;17.80;60.71;100509.94;5343325;26;108032;-81
2024/04/09 04:36:13;;;;;;;4.00;3.03;;;;;;;17.77;60.63;100502.16;5347333;26;122148;-82
2024/04/09 04:38:44;;;;;;;4.32;2.47;;;;;;;17.75;60.52;100517.50;5353751;26;120967;-83
2024/04/09 04:41:12;;;;;;;4.88;2.80;;;;;;;17.70;60.42;100520.53;5335424;26;107463;-81
2024/04/09 04:43:39;;;;;;;7.18;2.70;;;;;;;17.67;60.22;100521.66;5334693;26;107010;-82
2024/04/09 04:46:07;;;;;;;5.93;3.03;;;;;;;17.65;60.00;100539.69;5338143;26;125307;-82
2024/04/09 04:48:36;;;;;;;7.55;2.50;;;;;;;17.64;60.07;100532.59;5329354;26;122853;-85
2024/04/09 04:51:04;;;;;;;4.60;2.70;;;;;;;17.64;60.17;100535.28;5327550;26;105670;-82
2024/04/09 04:53:31;;;;;;;4.22;2.65;;;;;;;17.64;60.22;100532.59;5340347;26;107197;-83
2024/04/09 04:55:58;;;;;;;6.30;3.17;;;;;;;17.66;60.36;100541.34;5339347;26;121238;-82
2024/04/09 04:58:26;;;;;;;6.13;2.83;;;;;;;17.64;60.35;100537.97;5335792;26;120855;-82
2024/04/09 05:00:53;;;;;;;3.30;2.90;;;;;;;17.62;60.46;100534.56;5346755;26;107619;-82
2024/04/09 05:03:21;;;;;;;4.60;2.70;;;;;;;17.60;60.36;100525.78;5327036;26;107107;-82
2024/04/09 05:05:49;;;;;;;4.85;2.47;;;;;;;17.59;60.14;100529.44;5356497;26;121713;-83
2024/04/09 05:08:17;;;;;;;4.93;2.50;;;;;;;17.59;60.36;100529.44;5318079;26;121572;-82
2024/04/09 05:10:44;;;;;;;4.63;2.78;;;;;;;17.57;60.20;100531.38;5365304;26;106710;-82
2024/04/09 05:13:11;;;;;;;5.60;2.75;;;;;;;17.55;60.13;100533.31;5345593;26;107158;-81
2024/04/09 05:15:39;;;;;;;6.07;2.40;;;;;;;17.56;59.99;100539.56;5368575;26;122464;-83
2024/04/09 05:18:08;;;;;;;6.65;2.90;;;;;;;17.54;59.77;100541.47;5336192;26;122082;-85
2024/04/09 05:20:39;;;;;;;4.10;2.90;;;;;;;17.54;60.06;100547.72;5333244;26;109923;-83
2024/04/09 05:23:07;;;;;;;5.10;2.78;;;;;;;17.52;60.14;100549.66;5358874;26;109318;-85
2024/04/09 05:25:35;;;;;;;4.40;2.80;;;;;;;17.49;60.08;100550.72;5375060;26;122477;-81
2024/04/09 05:28:03;;;;;;;4.50;2.75;;;;;;;17.49;60.29;100565.97;5325309;26;122986;-83
2024/04/09 05:30:30;;;;;;;4.18;2.58;;;;;;;17.49;60.11;100571.31;5361116;26;106935;-83
2024/04/09 05:32:58;;;;;;;5.88;2.95;;;;;;;17.46;60.39;100564.38;5341452;26;106727;-84
2024/04/09 05:35:26;;;;;;;3.17;2.03;;;;;;;17.44;59.83;100549.38;5361099;26;120972;-83
2024/04/09 05:37:53;;;;;;;3.80;2.10;;;;;;;17.39;60.01;100543.56;5303521;26;120016;-82
2024/04/09 05:40:21;;;;;;;4.95;2.15;;;;;;;17.34;60.08;100545.75;5357936;26;106915;-82
2024/04/09 05:42:48;;;;;;;4.05;1.90;;;;;;;17.31;59.98;100547.69;5335115;26;107090;-83
2024/04/09 05:45:19;;;;;;;1.95;1.50;;;;;;;17.28;60.05;100547.91;5313073;26;123538;-83
2024/04/09 05:47:47;;;;;;;3.08;1.75;;;;;;;17.27;59.73;100546.22;5334108;26;123243;-83
2024/04/09 05:50:15;;;;;;;3.33;1.75;;;;;;;17.26;59.98;100543.66;5360354;26;107777;-82
2024/04/09 05:52:42;;;;;;;3.97;2.10;;;;;;;17.25;59.41;100560.69;5336953;26;107697;-82
2024/04/09 05:55:11;;;;;;;3.78;1.90;;;;;;;17.24;59.81;100567.03;5343650;26;121689;-84
2024/04/09 05:57:39;;;;;;;3.78;1.70;;;;;;;17.22;59.30;100575.16;5365169;26;120071;-85
2024/04/09 06:00:13;;;;;;;3.08;1.80;;;;;;;17.20;59.69;100582.47;5307589;26;107523;-82
2024/04/09 06:02:44;;;;;;;4.22;1.60;;;;;;;17.19;59.45;100580.75;5346150;26;106538;-84
2024/04/09 06:05:12;;;;;;;3.83;1.20;;;;;;;17.18;59.32;100567.47;5288254;26;120520;-82
2024/04/09 06:07:39;;;;;;;2.15;1.35;;;;;;;17.16;59.00;100575.66;5355046;26;123027;-83
2024/04/09 06:10:06;;;;;;;4.43;1.33;;;;;;;17.12;58.84;100579.50;5334340;26;108623;-82
2024/04/09 06:12:34;;;;;;;2.83;1.40;;;;;;;17.08;58.75;100594.09;5351601;26;108260;-82
2024/04/09 06:15:02;;;;;;;4.03;1.50;;;;;;;17.03;58.17;100585.59;5321779;26;122537;-84
2024/04/09 06:17:30;;;;;;;3.50;1.10;;;;;;;16.98;58.25;100593.13;5334226;26;121963;-82
2024/04/09 06:19:58;;;;;;;2.35;1.35;;;;;;;16.93;58.15;100591.66;5338850;26;106362;-82
2024/04/09 06:22:26;;;;;;;1.77;1.15;;;;;;;16.91;57.90;100582.88;5334750;26;107628;-81
2024/04/09 06:24:53;;;;;;;4.40;1.00;;;;;;;16.88;57.77;100577.75;5348117;26;122303;-82
2024/04/09 06:27:21;;;;;;;2.17;1.20;;;;;;;16.84;57.43;100597.69;5354979;26;121536;-82
2024/04/09 06:29:48;;;;;;;3.13;1.00;;;;;;;16.83;57.29;100595.97;5340933;26;105981;-83
2024/04/09 06:32:15;;;;;;;3.30;1.10;;;;;;;16.82;57.44;100610.31;5358809;26;108453;-81
2024/04/09 06:34:43;;;;;;;3.25;0.90;;;;;;;16.78;56.97;100619.50;5320985;26;122142;-82
2024/04/09 06:37:10;;;;;;;3.40;1.20;;;;;;;16.77;56.69;100628.50;5329615;26;122080;-82
2024/04/09 06:39:38;;;;;;;3.40;1.20;;;;;;;16.73;56.49;100632.38;5349710;26;107605;-82
2024/04/09 06:42:05;;;;;;;3.65;1.00;;;;;;;16.71;56.43;100628.97;5339594;26;106042;-82
2024/04/09 06:44:32;;;;;;;4.50;1.00;;;;;;;16.68;56.38;100639.88;5368572;26;122687;-84
2024/04/09 06:47:00;;;;;;;4.57;1.08;;;;;;;16.66;55.87;100655.19;5325050;26;120990;-84
2024/04/09 06:49:27;;;;;;;1.88;0.80;;;;;;;16.62;55.54;100640.34;5350580;26;107684;-84
2024/04/09 06:51:54;;;;;;;2.58;1.02;;;;;;;16.58;55.69;100665.59;5355883;26;107665;-83
2024/04/09 06:54:22;;;;;;;3.95;1.10;;;;;;;16.53;55.42;100648.03;5367179;26;121759;-83
2024/04/09 06:56:49;;;;;;;2.72;1.02;;;;;;;16.50;55.64;100659.00;5334433;26;121157;-85
2024/04/09 06:59:17;;;;;;;2.63;0.95;;;;;;;16.50;55.79;100652.75;5332607;26;107572;-84
2024/04/09 07:01:44;;;;;;;1.77;0.90;;;;;;;16.51;55.61;100649.97;5332795;26;107658;-83
2024/04/09 07:04:12;;;;;;;2.83;1.02;;;;;;;16.48;55.59;100652.91;5373252;26;122855;-85
2024/04/09 07:06:40;;;;;;;4.18;1.20;;;;;;;16.47;55.43;100650.34;5338861;26;121249;-86
2024/04/09 07:09:08;;;;;;;3.50;1.05;;;;;;;16.43;55.36;100652.38;5344059;26;105559;-85
2024/04/09 07:11:36;;;;;;;4.80;1.00;;;;;;;16.39;55.10;100650.91;5346135;26;108597;-84
2024/04/09 07:14:05;;;;;;;2.47;0.98;;;;;;;16.35;54.93;100658.28;5356840;26;121276;-83
2024/04/09 07:16:34;;;;;;;4.30;1.00;;;;;;;16.37;55.26;100668.88;5336845;26;121956;-83
2024/04/09 07:19:01;;;;;;;1.95;1.10;;;;;;;16.37;55.00;100658.16;5344481;26;107498;-83
2024/04/09 07:21:28;;;;;;;3.42;1.17;;;;;;;16.37;55.29;100668.88;5336896;26;105339;-84
2024/04/09 07:23:56;;;;;;;2.78;1.10;;;;;;;16.38;55.17;100665.22;5333101;26;121248;-83
2024/04/09 07:26:23;;;;;;;4.22;1.40;;;;;;;16.39;55.37;100664.25;5342620;26;120726;-84
2024/04/09 07:28:51;;;;;;;2.08;1.10;;;;;;;16.41;55.09;100654.31;5370595;26;107699;-85
2024/04/09 07:31:18;;;;;;;2.80;1.20;;;;;;;16.42;55.16;100656.00;5364005;26;106662;-85
2024/04/09 07:33:47;;;;;;;5.13;1.00;;;;;;;16.43;54.77;100657.72;5360664;26;122533;-83
2024/04/09 07:36:14;;;;;;;6.80;1.52;;;;;;;16.44;55.10;100663.91;5363730;26;121450;-83
2024/04/09 07:38:42;;;;;;;2.70;1.08;;;;;;;16.46;54.90;100665.53;5340367;26;105686;-84
2024/04/09 07:41:09;;;;;;;3.38;1.50;;;;;;;16.51;55.26;100676.72;5336596;26;106646;-84
2024/04/09 07:43:41;;;;;;;3.30;0.95;;;;;;;16.57;55.08;100664.72;5353542;26;122690;-83
2024/04/09 07:46:19;;;;;;;3.22;1.10;;;;;;;16.60;54.53;100663.66;5378727;26;121393;-83
2024/04/09 07:48:46;;;;;;;4.20;1.00;;;;;;;16.61;54.57;100660.00;5343527;26;107830;-83
2024/04/09 07:51:14;;;;;;;2.90;1.20;;;;;;;16.66;54.60;100674.75;5368186;26;108814;-85
2024/04/09 07:53:42;;;;;;;2.95;0.90;;;;;;;16.75;54.28;100689.28;5358665;26;121625;-83
2024/04/09 07:56:12;;;;;;;5.05;1.10;;;;;;;16.83;54.02;100692.25;5340330;26;121527;-83
2024/04/09 07:58:39;;;;;;;3.75;0.80;;;;;;;16.84;53.53;100688.63;5359372;26;107535;-80
2024/04/09 08:01:07;;;;;;;3.38;1.15;;;;;;;16.82;53.48;100700.34;5339585;26;106797;-80
2024/04/09 08:03:34;;;;;;;5.03;0.85;;;;;;;16.79;52.75;100689.91;5356944;26;121006;-81
2024/04/09 08:06:03;;;;;;;4.85;1.20;;;;;;;16.73;52.63;100696.56;5313006;26;123230;-81
2024/04/09 08:08:32;;;;;;;4.68;1.00;;;;;;;16.69;52.74;100711.13;5366484;26;107155;-80
2024/04/09 08:11:13;;;;;;;1.80;1.00;;;;;;;16.63;52.82;100700.84;5341142;26;107612;-83
2024/04/09 08:13:41;;;;;;;3.35;0.73;;;;;;;16.59;52.66;100705.56;5359438;26;120857;-84
2024/04/09 08:16:10;;;;;;;2.88;1.27;;;;;;;16.59;52.70;100710.06;5368411;26;125036;-83
2024/04/09 08:18:38;;;;;;;5.55;1.15;;;;;;;16.62;52.96;100731.25;5315403;26;105408;-85
2024/04/09 08:21:05;;;;;;;5.00;1.20;;;;;;;16.66;52.06;100743.44;5337729;26;106929;-82
2024/04/09 08:23:33;;;;;;;4.07;1.13;;;;;;;16.66;52.00;100743.44;5340716;26;121053;-83
2024/04/09 08:26:01;;;;;;;2.92;1.08;;;;;;;16.64;51.97;100746.22;5356122;26;123512;-82
2024/04/09 08:28:28;;;;;;;2.40;0.82;;;;;;;16.66;52.00;100760.31;5338735;26;107055;-83
2024/04/09 08:30:55;;;;;;;2.90;1.10;;;;;;;16.70;52.11;100760.97;5327463;26;105828;-85
2024/04/09 08:33:22;;;;;;;3.75;1.10;;;;;;;16.72;51.88;100759.88;5338784;26;121064;-80
2024/04/09 08:35:50;;;;;;;3.72;1.00;;;;;;;16.75;51.66;100761.50;5356408;26;121227;-83
2024/04/09 08:38:19;;;;;;;2.50;1.25;;;;;;;16.78;51.97;100769.28;5357759;26;108040;-84
2024/04/09 08:40:47;;;;;;;5.03;1.10;;;;;;;16.81;51.70;100774.41;5355430;26;107384;-83
2024/04/09 08:43:17;;;;;;;3.15;0.90;;;;;;;16.82;51.64;100776.16;5366069;26;121655;-84
2024/04/09 08:45:45;;;;;;;4.18;1.20;;;;;;;16.82;51.49;100781.50;5340368;26;122253;-84
2024/04/09 08:48:16;;;;;;;3.60;1.38;;;;;;;16.85;51.31;100786.63;5364162;26;107827;-84
2024/04/09 08:50:49;;;;;;;5.57;1.50;;;;;;;16.84;51.01;100795.63;5374461;26;108743;-82
2024/04/09 08:53:18;;;;;;;3.05;1.38;;;;;;;16.83;51.25;100803.75;5361537;26;122907;-82
2024/04/09 08:55:45;;;;;;;3.50;1.30;;;;;;;16.80;51.17;100804.81;5371260;26;122246;-81
2024/04/09 08:58:13;;;;;;;3.45;1.30;;;;;;;16.81;51.37;100817.19;5359639;26;107419;-84
2024/04/09 09:00:40;;;;;;;1.83;0.95;;;;;;;16.81;51.51;100822.56;5334395;26;107423;-82
2024/04/09 09:03:07;;;;;;;4.22;1.17;;;;;;;16.83;51.30;100826.00;5341327;26;122765;-84
2024/04/09 09:05:35;;;;;;;3.88;1.05;;;;;;;16.86;51.10;100836.50;5327524;26;122756;-82
2024/04/09 09:08:04;;;;;;;7.15;1.20;;;;;;;16.85;50.32;100813.38;5356238;26;107909;-76
2024/04/09 09:10:34;;;;;;;2.65;1.30;;;;;;;16.82;50.57;100818.06;5356826;26;108522;-78
2024/04/09 09:13:03;;;;;;;6.00;1.40;;;;;;;16.78;50.36;100821.91;5338761;26;122265;-79
2024/04/09 09:15:31;;;;;;;3.55;1.10;;;;;;;16.73;50.43;100819.59;5344590;26;122211;-78
2024/04/09 09:17:59;;;;;;;4.75;1.55;;;;;;;16.71;50.38;100822.38;5340588;26;107722;-78
2024/04/09 09:20:26;;;;;;;4.25;1.08;;;;;;;16.72;50.16;100815.19;5350987;26;106826;-79
2024/04/09 09:22:54;;;;;;;6.82;1.30;;;;;;;16.72;49.97;100818.72;5331515;26;120119;-80
2024/04/09 09:25:28;;;;;;;5.60;1.65;;;;;;;16.72;49.93;100817.88;5327410;26;122868;-79
2024/04/09 09:28:06;;;;;;;5.38;1.17;;;;;;;16.73;50.04;100822.25;5364283;26;108023;-81
2024/04/09 09:30:40;;;;;;;4.63;1.13;;;;;;;16.77;50.10;100813.03;5359052;26;106262;-80
2024/04/09 09:33:17;;;;;;;5.43;1.48;;;;;;;16.79;50.04;100829.84;5366914;26;122516;-79
2024/04/09 09:35:49;;;;;;;1.90;1.10;;;;;;;16.79;49.61;100824.50;5331339;26;122607;-81
2024/04/09 09:38:21;;;;;;;3.47;1.60;;;;;;;16.83;49.51;100836.72;5366784;26;107741;-80
2024/04/09 09:40:49;;;;;;;3.72;1.70;;;;;;;16.92;49.96;100844.06;5354306;26;107650;-78
2024/04/09 09:43:19;;;;;;;2.35;1.40;;;;;;;17.01;50.06;100839.00;5362085;26;122066;-80
2024/04/09 09:45:50;;;;;;;3.55;1.35;;;;;;;17.09;49.54;100821.44;5355091;26;121579;-79
2024/04/09 09:48:20;;;;;;;3.45;1.50;;;;;;;17.19;49.47;100824.31;5363853;26;107408;-78
2024/04/09 09:50:48;;;;;;;5.60;1.48;;;;;;;17.25;49.68;100837.25;5359614;26;106652;-79
2024/04/09 09:53:19;;;;;;;4.28;1.30;;;;;;;17.30;49.32;100851.13;5342007;26;121206;-78
2024/04/09 09:55:53;;;;;;;3.95;1.48;;;;;;;17.29;48.84;100865.50;5310152;26;120612;-79
2024/04/09 09:58:24;;;;;;;4.47;1.40;;;;;;;17.29;48.86;100860.16;5359959;26;108328;-80
2024/04/09 10:00:52;;;;;;;4.95;1.67;;;;;;;17.33;48.73;100855.44;5354020;26;106940;-80
2024/04/09 10:03:20;;;;;;;5.10;1.45;;;;;;;17.36;48.87;100859.69;5358556;26;122755;-79
2024/04/09 10:05:49;;;;;;;3.78;1.33;;;;;;;17.39;48.66;100859.47;5361062;26;120828;-78
2024/04/09 10:08:20;;;;;;;3.25;1.33;;;;;;;17.42;48.46;100869.94;5326301;26;106642;-78
2024/04/09 10:10:51;;;;;;;5.50;1.27;;;;;;;17.42;48.52;100876.19;5324736;26;107808;-77
2024/04/09 10:13:23;;;;;;;3.22;1.38;;;;;;;17.43;48.32;100877.03;5329563;26;121076;-79
2024/04/09 10:15:55;;;;;;;5.80;1.60;;;;;;;17.40;48.18;100871.88;5351886;26;122707;-80
2024/04/09 10:18:41;;;;;;;2.55;1.30;;;;;;;17.40;48.10;100870.06;5353207;26;108648;-79
2024/04/09 10:21:11;;;;;;;2.78;1.25;;;;;;;17.44;47.88;100874.25;5353434;26;108798;-79
2024/04/09 10:23:40;;;;;;;6.38;1.40;;;;;;;17.47;47.71;100868.63;5329672;26;121088;-80
2024/04/09 10:26:11;;;;;;;2.45;1.50;;;;;;;17.48;47.47;100888.25;5363377;26;121654;-81
2024/04/09 10:28:38;;;;;;;3.05;1.50;;;;;;;17.47;47.46;100887.38;5300117;26;106683;-80
2024/04/09 10:31:13;;;;;;;5.90;1.70;;;;;;;17.46;47.25;100876.78;5364938;26;107313;-78
2024/04/09 10:33:41;;;;;;;3.00;1.33;;;;;;;17.48;47.65;100880.22;5350780;26;122541;-78
2024/04/09 10:36:13;;;;;;;3.85;1.65;;;;;;;17.51;47.52;100896.06;5359757;26;123326;-80
2024/04/09 10:38:41;;;;;;;2.55;1.38;;;;;;;17.59;47.38;100899.00;5323675;26;106731;-79
2024/04/09 10:41:11;;;;;;;5.00;1.20;;;;;;;17.66;47.26;100910.97;5361480;26;108253;-78
2024/04/09 10:43:40;;;;;;;4.78;1.10;;;;;;;17.77;47.40;100904.00;5318807;26;121357;-81
2024/04/09 10:46:07;;;;;;;5.13;1.42;;;;;;;17.84;47.17;100898.09;5351055;26;122224;-79
2024/04/09 10:48:42;;;;;;;1.67;1.23;;;;;;;17.89;46.89;100911.13;5343039;26;107374;-81
2024/04/09 10:51:10;;;;;;;5.47;1.50;;;;;;;17.88;46.82;100921.00;5345735;26;107591;-79
2024/04/09 10:53:38;;;;;;;3.60;1.20;;;;;;;17.88;46.44;100914.81;5354038;26;121369;-79
2024/04/09 10:56:07;;;;;;;2.72;1.00;;;;;;;17.88;46.53;100914.81;5353759;26;121998;-79
2024/04/09 10:58:38;;;;;;;3.53;1.10;;;;;;;17.88;46.37;100909.44;5352246;26;106919;-80
2024/04/09 11:01:12;;;;;;;3.53;1.42;;;;;;;17.91;46.28;100917.22;5327532;26;107263;-80
2024/04/09 11:03:41;;;;;;;2.00;1.10;;;;;;;17.94;46.75;100911.66;5339810;26;121649;-80
2024/04/09 11:06:13;;;;;;;4.03;1.20;;;;;;;17.95;46.46;100909.81;5334149;26;122210;-80
2024/04/09 11:08:40;;;;;;;1.83;1.02;;;;;;;17.99;46.60;100912.16;5353799;26;109092;-80
2024/04/09 11:11:08;;;;;;;1.52;0.93;;;;;;;18.06;46.62;100913.41;5363388;26;107279;-80
2024/04/09 11:13:35;;;;;;;2.30;1.00;;;;;;;18.13;46.33;100923.66;5352962;26;122923;-80
2024/04/09 11:16:03;;;;;;;2.90;0.90;;;;;;;18.16;46.21;100935.03;5359993;26;120511;-81
2024/04/09 11:18:30;;;;;;;3.63;1.00;;;;;;;18.19;45.88;100928.56;5364139;26;107633;-80
2024/04/09 11:21:03;;;;;;;4.22;1.10;;;;;;;18.18;46.15;100933.06;5366671;26;107748;-80
2024/04/09 11:23:31;;;;;;;3.65;1.20;;;;;;;18.21;45.91;100942.69;5357688;26;121407;-79